Time;durP1;ratioP1;P1;durP2;ratioP2;P2;SDS_P1;SDS_P2;PMS_P1;PMS_P2;Temp;Humidity;BMP_temperature;BMP_pressure;BME280_temperature;BME280_humidity;BME280_pressure;Samples;Min_cycle;Max_cycle;Signal;HPM_P1;HPM_P2
2023/03/10 00:00:42;;;;;;;17.42;10.18;;;1.40;99.90;;;;;;5098199;27;20048;-68
2023/03/10 00:03:08;;;;;;;17.63;9.98;;;1.30;99.90;;;;;;5098109;28;20101;-68
2023/03/10 00:05:35;;;;;;;13.38;7.30;;;1.30;99.90;;;;;;5100248;28;20042;-68
2023/03/10 00:08:01;;;;;;;18.10;10.50;;;1.40;99.90;;;;;;5077795;28;20040;-68
2023/03/10 00:10:27;;;;;;;16.83;9.82;;;1.40;99.90;;;;;;5095245;28;20082;-68
2023/03/10 00:12:52;;;;;;;19.48;9.70;;;1.40;99.90;;;;;;5086698;28;20130;-68
2023/03/10 00:15:18;;;;;;;16.27;9.27;;;1.30;99.90;;;;;;5094376;28;20039;-69
2023/03/10 00:17:44;;;;;;;17.58;10.02;;;1.30;99.90;;;;;;5099575;28;20028;-68
2023/03/10 00:20:11;;;;;;;16.50;9.50;;;1.40;99.90;;;;;;5096383;27;20036;-68
2023/03/10 00:22:40;;;;;;;17.30;9.95;;;1.50;99.90;;;;;;5094889;28;20396;-68
2023/03/10 00:25:07;;;;;;;16.58;10.10;;;1.50;99.90;;;;;;5095596;28;20071;-68
2023/03/10 00:27:33;;;;;;;17.95;10.73;;;1.40;99.90;;;;;;5114862;28;20040;-68
2023/03/10 00:29:59;;;;;;;16.58;9.48;;;1.40;99.90;;;;;;5131988;27;20423;-68
2023/03/10 00:32:25;;;;;;;15.90;9.27;;;1.40;99.90;;;;;;5114794;28;20411;-68
2023/03/10 00:34:50;;;;;;;16.40;9.80;;;1.40;99.90;;;;;;5124302;27;20169;-68
2023/03/10 00:37:17;;;;;;;18.55;10.38;;;1.40;99.90;;;;;;5142067;27;20036;-68
2023/03/10 00:39:43;;;;;;;16.80;9.48;;;1.40;99.90;;;;;;5097681;28;20035;-69
2023/03/10 00:42:09;;;;;;;15.27;8.38;;;1.40;99.90;;;;;;5097869;28;20054;-68
2023/03/10 00:44:34;;;;;;;16.55;9.63;;;1.40;99.90;;;;;;5129015;27;20031;-68
2023/03/10 00:47:00;;;;;;;17.63;10.25;;;1.40;99.90;;;;;;5093617;28;20036;-68
2023/03/10 00:49:26;;;;;;;16.88;10.10;;;1.40;99.90;;;;;;5110740;27;20057;-68
2023/03/10 00:51:51;;;;;;;14.98;8.43;;;1.50;99.90;;;;;;5087199;28;20052;-68
2023/03/10 00:54:17;;;;;;;15.63;8.77;;;1.40;99.90;;;;;;5095191;28;20031;-68
2023/03/10 00:56:42;;;;;;;16.02;8.70;;;1.40;99.90;;;;;;5148824;27;20036;-68
2023/03/10 00:59:10;;;;;;;17.13;8.90;;;1.40;99.90;;;;;;5113917;28;20196;-68
2023/03/10 01:01:39;;;;;;;13.98;8.52;;;1.50;99.90;;;;;;5148506;27;20555;-69
2023/03/10 01:04:07;;;;;;;16.45;10.10;;;1.60;99.90;;;;;;5103932;28;20036;-68
2023/03/10 01:06:33;;;;;;;14.60;7.82;;;1.50;99.90;;;;;;5127840;27;20044;-69
2023/03/10 01:08:59;;;;;;;17.73;11.13;;;1.50;99.90;;;;;;5110683;28;20100;-68
2023/03/10 01:11:27;;;;;;;18.08;10.85;;;1.50;99.90;;;;;;5093162;28;20399;-69
2023/03/10 01:13:56;;;;;;;17.33;10.48;;;1.40;99.90;;;;;;5093601;28;20532;-69
2023/03/10 01:16:21;;;;;;;14.15;8.55;;;1.50;99.90;;;;;;5111711;28;20037;-69
2023/03/10 01:18:47;;;;;;;17.08;10.55;;;1.50;99.90;;;;;;5111668;28;20040;-69
2023/03/10 01:21:19;;;;;;;13.35;8.48;;;1.40;99.90;;;;;;5112920;28;20096;-69
2023/03/10 01:23:45;;;;;;;15.73;9.65;;;1.50;99.90;;;;;;5112736;27;20066;-69
2023/03/10 01:26:11;;;;;;;15.82;9.70;;;1.50;99.90;;;;;;5110272;28;20032;-69
2023/03/10 01:28:36;;;;;;;15.98;10.60;;;1.40;99.90;;;;;;5148074;27;20035;-69
2023/03/10 01:31:04;;;;;;;16.02;9.80;;;1.40;99.90;;;;;;5080364;28;20423;-69
2023/03/10 01:33:30;;;;;;;16.25;10.13;;;1.40;99.90;;;;;;5093195;28;20075;-69
2023/03/10 01:35:55;;;;;;;18.70;10.63;;;1.40;99.90;;;;;;5075623;28;20082;-69
2023/03/10 01:38:21;;;;;;;14.77;8.52;;;1.40;99.90;;;;;;5076277;28;20551;-69
2023/03/10 01:40:48;;;;;;;18.70;10.32;;;1.50;99.90;;;;;;5105164;28;20044;-68
2023/03/10 01:43:27;;;;;;;19.02;11.60;;;1.50;99.90;;;;;;5147765;27;20116;-69
2023/03/10 01:45:52;;;;;;;20.40;12.57;;;1.50;99.90;;;;;;5113310;28;20046;-69
2023/03/10 01:48:21;;;;;;;22.17;13.63;;;1.50;99.90;;;;;;5117607;27;20039;-69
2023/03/10 01:50:51;;;;;;;19.55;12.45;;;1.50;99.90;;;;;;5109210;27;20056;-69
2023/03/10 01:53:19;;;;;;;21.42;13.43;;;1.60;99.90;;;;;;5107671;28;20046;-69
2023/03/10 01:55:51;;;;;;;17.05;10.48;;;1.50;99.90;;;;;;5113142;28;20069;-69
2023/03/10 01:58:19;;;;;;;22.08;13.75;;;1.60;99.90;;;;;;5096252;28;20031;-69
2023/03/10 02:00:45;;;;;;;21.38;13.35;;;1.50;99.90;;;;;;5146319;27;20126;-68
2023/03/10 02:03:20;;;;;;;16.42;9.73;;;1.60;99.90;;;;;;5113114;28;20086;-68
2023/03/10 02:06:08;;;;;;;22.38;13.60;;;1.60;99.90;;;;;;5094617;28;20043;-68
2023/03/10 02:08:41;;;;;;;20.05;12.30;;;1.60;99.90;;;;;;5093122;28;20078;-69
2023/03/10 02:11:06;;;;;;;20.27;12.98;;;1.60;99.90;;;;;;5111607;28;20122;-68
2023/03/10 02:13:32;;;;;;;20.77;13.27;;;1.60;99.90;;;;;;5113191;28;20075;-68
2023/03/10 02:15:58;;;;;;;21.60;13.48;;;1.60;99.90;;;;;;5111536;28;20031;-68
2023/03/10 02:18:25;;;;;;;21.75;13.23;;;1.50;99.90;;;;;;5094776;28;20051;-68
2023/03/10 02:21:28;;;;;;;20.42;13.27;;;1.50;99.90;;;;;;5112179;28;20067;-69
2023/03/10 02:24:17;;;;;;;19.63;12.60;;;1.60;99.90;;;;;;5095746;28;20480;-68
2023/03/10 02:26:42;;;;;;;21.55;14.00;;;1.60;99.90;;;;;;5075527;28;20036;-68
2023/03/10 02:29:14;;;;;;;20.98;13.65;;;1.50;99.90;;;;;;5126244;27;20040;-69
2023/03/10 02:31:41;;;;;;;20.42;12.98;;;1.60;99.90;;;;;;5095840;28;20423;-69
2023/03/10 02:34:07;;;;;;;20.13;13.30;;;1.50;99.90;;;;;;5086119;28;20040;-69
2023/03/10 02:36:33;;;;;;;21.15;13.63;;;1.50;99.90;;;;;;5112549;28;20066;-68
2023/03/10 02:38:58;;;;;;;18.45;11.07;;;1.40;99.90;;;;;;5112530;28;20511;-68
2023/03/10 02:41:35;;;;;;;20.40;12.57;;;1.50;99.90;;;;;;5128114;27;20035;-68
2023/03/10 02:44:08;;;;;;;17.23;10.40;;;1.60;99.90;;;;;;5095493;28;20495;-68
2023/03/10 02:46:33;;;;;;;17.20;10.82;;;1.60;99.90;;;;;;5109092;28;20105;-69
2023/03/10 02:49:01;;;;;;;17.38;10.50;;;1.60;99.90;;;;;;5097786;28;20487;-68
2023/03/10 02:51:31;;;;;;;15.52;9.77;;;1.50;99.90;;;;;;5110700;28;20281;-68
2023/03/10 02:53:59;;;;;;;15.73;8.95;;;1.50;99.90;;;;;;5112071;28;20503;-69
2023/03/10 02:56:25;;;;;;;14.32;8.32;;;1.50;99.90;;;;;;5092542;28;20047;-69
2023/03/10 02:58:50;;;;;;;15.60;9.10;;;1.50;99.90;;;;;;5108923;28;20032;-68
2023/03/10 03:01:16;;;;;;;12.32;7.43;;;1.50;99.90;;;;;;5108943;28;20040;-69
2023/03/10 03:03:42;;;;;;;14.63;8.57;;;1.50;99.90;;;;;;5108595;28;20568;-68
2023/03/10 03:06:07;;;;;;;11.02;5.57;;;1.50;99.90;;;;;;5125653;27;20044;-68
2023/03/10 03:08:33;;;;;;;14.07;7.68;;;1.50;99.90;;;;;;5128752;27;20047;-68
2023/03/10 03:10:59;;;;;;;13.77;8.00;;;1.60;99.90;;;;;;5107760;28;20207;-68
2023/03/10 03:13:25;;;;;;;12.95;7.57;;;1.50;99.90;;;;;;5089462;28;20437;-68
2023/03/10 03:15:51;;;;;;;13.25;7.45;;;1.50;99.90;;;;;;5097419;28;20036;-69
2023/03/10 03:18:17;;;;;;;13.02;7.70;;;1.60;99.90;;;;;;5126625;27;20042;-68
2023/03/10 03:20:43;;;;;;;14.55;8.00;;;1.70;99.90;;;;;;5102838;28;20513;-69
2023/03/10 03:23:08;;;;;;;13.43;8.15;;;1.60;99.90;;;;;;5099076;28;20036;-69
2023/03/10 03:25:37;;;;;;;12.38;7.35;;;1.70;99.90;;;;;;5101146;28;20044;-69
2023/03/10 03:28:04;;;;;;;14.52;8.10;;;1.60;99.90;;;;;;5107098;28;20119;-69
2023/03/10 03:30:30;;;;;;;13.75;6.57;;;1.50;99.90;;;;;;5105459;28;20085;-69
2023/03/10 03:32:56;;;;;;;14.43;8.73;;;1.60;99.90;;;;;;5084773;28;20118;-69
2023/03/10 03:35:28;;;;;;;10.13;4.53;;;1.50;99.90;;;;;;5132715;27;20039;-69
2023/03/10 03:37:54;;;;;;;14.20;7.97;;;1.60;99.90;;;;;;5094528;28;20067;-69
2023/03/10 03:40:22;;;;;;;11.93;6.10;;;1.50;99.90;;;;;;5122374;28;20086;-69
2023/03/10 03:42:49;;;;;;;12.63;6.60;;;1.60;99.90;;;;;;5103868;28;20159;-69
2023/03/10 03:45:17;;;;;;;13.63;8.15;;;1.60;99.90;;;;;;5110820;28;20039;-69
2023/03/10 03:47:44;;;;;;;14.00;7.97;;;1.50;99.90;;;;;;5094847;28;20043;-69
2023/03/10 03:50:12;;;;;;;15.25;8.55;;;1.50;99.90;;;;;;5091825;28;20057;-69
2023/03/10 03:52:38;;;;;;;14.43;7.60;;;1.50;99.90;;;;;;5083346;28;20044;-69
2023/03/10 03:55:04;;;;;;;15.25;8.73;;;1.50;99.90;;;;;;5106452;28;20043;-69
2023/03/10 03:57:30;;;;;;;14.80;8.85;;;1.50;99.90;;;;;;5086747;28;20031;-69
2023/03/10 03:59:55;;;;;;;14.43;8.45;;;1.50;99.90;;;;;;5118715;27;20051;-69
2023/03/10 04:02:21;;;;;;;16.27;8.43;;;1.50;99.90;;;;;;5109185;27;20118;-69
2023/03/10 04:04:46;;;;;;;15.88;9.35;;;1.50;99.90;;;;;;5127180;27;20050;-69
2023/03/10 04:07:12;;;;;;;14.18;8.30;;;1.50;99.90;;;;;;5084614;28;20043;-69
2023/03/10 04:09:39;;;;;;;15.40;8.45;;;1.50;99.90;;;;;;5104792;28;20042;-69
2023/03/10 04:12:06;;;;;;;14.45;8.13;;;1.40;99.90;;;;;;5111875;28;20535;-69
2023/03/10 04:14:32;;;;;;;14.73;8.25;;;1.50;99.90;;;;;;5087619;28;20071;-69
2023/03/10 04:16:58;;;;;;;15.00;7.57;;;1.50;99.90;;;;;;5136101;27;20164;-69
2023/03/10 04:19:23;;;;;;;14.88;8.40;;;1.60;99.90;;;;;;5106822;28;20043;-69
2023/03/10 04:21:49;;;;;;;16.77;8.88;;;1.60;99.90;;;;;;5095413;28;20055;-69
2023/03/10 04:24:15;;;;;;;12.63;7.32;;;1.60;99.90;;;;;;5114060;28;20495;-69
2023/03/10 04:26:40;;;;;;;17.65;10.38;;;1.70;99.90;;;;;;5120161;27;21315;-69
2023/03/10 04:29:06;;;;;;;15.73;9.32;;;1.60;99.90;;;;;;5104232;28;20028;-69
2023/03/10 04:31:31;;;;;;;16.00;9.90;;;1.60;99.90;;;;;;5144301;27;20420;-69
2023/03/10 04:33:57;;;;;;;16.40;9.23;;;1.50;99.90;;;;;;5112753;28;20115;-69
2023/03/10 04:36:23;;;;;;;15.90;9.30;;;1.50;99.90;;;;;;5114336;28;20126;-69
2023/03/10 04:38:48;;;;;;;17.27;10.27;;;1.50;99.90;;;;;;5148322;27;20046;-69
2023/03/10 04:41:14;;;;;;;15.77;10.18;;;1.50;99.90;;;;;;5148462;27;20047;-69
2023/03/10 04:43:40;;;;;;;17.33;10.73;;;1.50;99.90;;;;;;5138024;27;20040;-69
2023/03/10 04:46:06;;;;;;;16.27;9.98;;;1.60;99.90;;;;;;5142748;27;20130;-69
2023/03/10 04:48:32;;;;;;;20.50;12.63;;;1.60;99.90;;;;;;5113293;27;20050;-69
2023/03/10 04:51:01;;;;;;;19.02;11.38;;;1.50;99.90;;;;;;5102638;28;20499;-70
2023/03/10 04:53:27;;;;;;;18.08;10.50;;;1.50;99.90;;;;;;5110028;28;20044;-70
2023/03/10 04:55:52;;;;;;;19.38;11.07;;;1.50;99.90;;;;;;5102889;28;20545;-69
2023/03/10 04:58:20;;;;;;;20.27;11.70;;;1.50;99.90;;;;;;5112111;27;20036;-69
2023/03/10 05:00:45;;;;;;;19.73;11.38;;;1.40;99.90;;;;;;5086736;28;20032;-70
2023/03/10 05:03:11;;;;;;;20.63;11.55;;;1.40;99.90;;;;;;5111301;27;20487;-70
2023/03/10 05:05:37;;;;;;;21.23;12.45;;;1.40;99.90;;;;;;5119992;27;20032;-70
2023/03/10 05:08:03;;;;;;;17.90;10.50;;;1.40;99.90;;;;;;5079065;28;20043;-70
2023/03/10 05:10:29;;;;;;;20.35;11.60;;;1.50;99.90;;;;;;5093403;28;20054;-71
2023/03/10 05:12:54;;;;;;;22.75;13.15;;;1.50;99.90;;;;;;5108074;27;20080;-71
2023/03/10 05:15:20;;;;;;;21.17;12.90;;;1.40;99.90;;;;;;5105693;28;20043;-71
2023/03/10 05:17:46;;;;;;;20.35;11.95;;;1.50;99.90;;;;;;5103663;28;20032;-71
2023/03/10 05:20:13;;;;;;;21.15;12.48;;;1.50;99.90;;;;;;5127207;27;20039;-71
2023/03/10 05:22:39;;;;;;;21.52;13.55;;;1.50;99.90;;;;;;5115524;27;20395;-71
2023/03/10 05:25:06;;;;;;;21.35;13.32;;;1.40;99.90;;;;;;5090003;28;20491;-71
2023/03/10 05:27:36;;;;;;;21.70;12.27;;;1.50;99.90;;;;;;5094118;28;20039;-71
2023/03/10 05:30:06;;;;;;;22.30;14.20;;;1.50;99.90;;;;;;5092041;28;20172;-71
2023/03/10 05:32:35;;;;;;;23.70;13.43;;;1.50;99.90;;;;;;5089245;27;20031;-71
2023/03/10 05:35:01;;;;;;;21.70;12.98;;;1.40;99.90;;;;;;5110714;28;20043;-71
2023/03/10 05:37:27;;;;;;;21.60;12.10;;;1.50;99.90;;;;;;5091312;28;20062;-72
2023/03/10 05:39:53;;;;;;;24.75;13.73;;;1.40;99.90;;;;;;5099485;27;20495;-71
2023/03/10 05:42:18;;;;;;;23.25;14.40;;;1.50;99.90;;;;;;5113450;28;20086;-71
2023/03/10 05:44:44;;;;;;;27.30;13.25;;;1.50;99.90;;;;;;5103872;27;20086;-71
2023/03/10 05:47:09;;;;;;;24.70;13.10;;;1.50;99.90;;;;;;5136829;27;20495;-71
2023/03/10 05:49:35;;;;;;;26.85;14.85;;;1.50;99.90;;;;;;5141727;27;20488;-72
2023/03/10 05:52:01;;;;;;;25.98;14.55;;;1.40;99.90;;;;;;5103895;27;20039;-72
2023/03/10 05:54:27;;;;;;;29.52;16.17;;;1.40;99.90;;;;;;5080282;28;20032;-72
2023/03/10 05:56:52;;;;;;;28.15;16.02;;;1.50;99.90;;;;;;5107919;28;20495;-72
2023/03/10 05:59:18;;;;;;;30.17;17.60;;;1.50;99.90;;;;;;5142832;27;20487;-72
2023/03/10 06:01:44;;;;;;;30.77;17.05;;;1.50;99.90;;;;;;5130567;27;20031;-72
2023/03/10 06:04:09;;;;;;;31.50;17.60;;;1.50;99.90;;;;;;5117673;27;20077;-72
2023/03/10 06:06:35;;;;;;;30.35;17.23;;;1.40;99.90;;;;;;5112044;28;20047;-72
2023/03/10 06:09:01;;;;;;;32.22;17.67;;;1.40;99.90;;;;;;5115814;27;20507;-72
2023/03/10 06:11:27;;;;;;;32.15;18.02;;;1.40;99.90;;;;;;5126796;27;20055;-72
2023/03/10 06:13:52;;;;;;;28.10;14.52;;;1.40;99.90;;;;;;5110683;28;20036;-72
2023/03/10 06:16:18;;;;;;;32.33;19.20;;;1.50;99.90;;;;;;5107702;28;20057;-72
2023/03/10 06:18:44;;;;;;;31.73;18.50;;;1.50;99.90;;;;;;5108845;28;20031;-72
2023/03/10 06:21:12;;;;;;;28.77;16.65;;;1.40;99.90;;;;;;5075328;28;20048;-72
2023/03/10 06:23:38;;;;;;;32.03;17.35;;;1.50;99.90;;;;;;5126582;27;20173;-73
2023/03/10 06:26:06;;;;;;;32.53;18.40;;;1.50;99.90;;;;;;5111361;28;20126;-72
2023/03/10 06:28:35;;;;;;;30.95;17.27;;;1.50;99.90;;;;;;5085026;28;20059;-72
2023/03/10 06:31:13;;;;;;;29.77;16.65;;;1.50;99.90;;;;;;5115807;27;20468;-72
2023/03/10 06:33:38;;;;;;;29.50;16.35;;;1.50;99.90;;;;;;5081470;28;20043;-72
2023/03/10 06:36:04;;;;;;;27.95;15.05;;;1.50;99.90;;;;;;5106180;28;20036;-73
2023/03/10 06:38:30;;;;;;;27.67;15.60;;;1.50;99.90;;;;;;5119945;27;20042;-73
2023/03/10 06:40:57;;;;;;;26.58;14.95;;;1.50;99.90;;;;;;5099011;28;20531;-72
2023/03/10 06:43:23;;;;;;;28.02;16.02;;;1.50;99.90;;;;;;5092437;28;20435;-72
2023/03/10 06:45:49;;;;;;;24.13;13.10;;;1.50;99.90;;;;;;5138721;27;20151;-72
2023/03/10 06:48:15;;;;;;;27.00;16.15;;;1.50;99.90;;;;;;5112643;28;20064;-72
2023/03/10 06:50:42;;;;;;;28.48;16.00;;;1.50;99.90;;;;;;5095307;28;20397;-72
2023/03/10 06:53:08;;;;;;;26.52;14.45;;;1.50;99.90;;;;;;5115125;28;20023;-72
2023/03/10 06:55:34;;;;;;;25.58;15.38;;;1.40;99.90;;;;;;5108250;28;20080;-72
2023/03/10 06:58:00;;;;;;;24.73;14.13;;;1.40;99.90;;;;;;5107495;28;20046;-72
2023/03/10 07:00:26;;;;;;;23.38;13.88;;;1.40;99.90;;;;;;5100498;28;20036;-72
2023/03/10 07:02:52;;;;;;;22.40;13.15;;;1.50;99.90;;;;;;5110397;28;20127;-72
2023/03/10 07:05:18;;;;;;;22.02;12.77;;;1.50;99.90;;;;;;5102400;28;20119;-72
2023/03/10 07:07:43;;;;;;;19.38;11.35;;;1.50;99.90;;;;;;5117108;28;20067;-71
2023/03/10 07:10:10;;;;;;;23.10;13.05;;;1.60;99.90;;;;;;5116412;28;20032;-71
2023/03/10 07:12:35;;;;;;;19.60;10.82;;;1.50;99.90;;;;;;5109445;28;20035;-71
2023/03/10 07:15:02;;;;;;;21.02;11.93;;;1.60;99.90;;;;;;5099975;28;20408;-71
2023/03/10 07:17:27;;;;;;;21.42;11.90;;;1.50;99.90;;;;;;5087732;28;20728;-71
2023/03/10 07:19:53;;;;;;;20.23;12.07;;;1.50;99.90;;;;;;5098920;28;20036;-71
2023/03/10 07:22:19;;;;;;;18.40;10.65;;;1.60;99.90;;;;;;5088237;28;20088;-72
2023/03/10 07:24:44;;;;;;;20.83;12.80;;;1.50;99.90;;;;;;5093383;28;20040;-72
2023/03/10 07:27:10;;;;;;;19.70;11.00;;;1.50;99.90;;;;;;5086472;28;20483;-71
2023/03/10 07:29:35;;;;;;;15.57;9.55;;;1.60;99.90;;;;;;5093270;28;20047;-72
2023/03/10 07:32:01;;;;;;;19.95;10.60;;;1.60;99.90;;;;;;5121820;28;20476;-71
2023/03/10 07:34:26;;;;;;;18.95;10.68;;;1.60;99.90;;;;;;5095119;28;20086;-71
2023/03/10 07:36:52;;;;;;;18.23;9.95;;;1.70;99.90;;;;;;5115378;28;20068;-71
2023/03/10 07:39:18;;;;;;;18.77;10.30;;;1.70;99.90;;;;;;5093072;28;20054;-72
2023/03/10 07:41:43;;;;;;;19.33;10.75;;;1.70;99.90;;;;;;5109510;27;20092;-72
2023/03/10 07:44:09;;;;;;;17.40;8.23;;;1.70;99.90;;;;;;5088931;28;20492;-71
2023/03/10 07:46:34;;;;;;;17.48;10.02;;;1.70;99.90;;;;;;5130454;27;20186;-71
2023/03/10 07:49:03;;;;;;;17.85;10.18;;;1.80;99.90;;;;;;5084168;28;20048;-71
2023/03/10 07:51:32;;;;;;;17.42;8.90;;;1.70;99.90;;;;;;5092361;28;20052;-71
2023/03/10 07:53:57;;;;;;;18.75;11.15;;;1.70;99.90;;;;;;5114542;28;20411;-71
2023/03/10 07:56:23;;;;;;;20.40;11.40;;;1.70;99.90;;;;;;5102717;28;20118;-71
2023/03/10 07:58:48;;;;;;;21.08;11.93;;;1.70;99.90;;;;;;5126470;27;20035;-71
2023/03/10 08:01:17;;;;;;;18.52;10.35;;;1.70;99.90;;;;;;5112438;27;20075;-70
2023/03/10 08:03:43;;;;;;;19.25;10.40;;;1.70;99.90;;;;;;5108292;28;20073;-71
2023/03/10 08:06:19;;;;;;;18.67;9.75;;;1.70;99.90;;;;;;5104738;28;20067;-71
2023/03/10 08:08:44;;;;;;;20.98;11.32;;;1.70;99.90;;;;;;5103675;28;20439;-71
2023/03/10 08:11:10;;;;;;;18.77;11.05;;;1.60;99.90;;;;;;5128531;27;20071;-70
2023/03/10 08:13:36;;;;;;;19.75;11.23;;;1.70;99.90;;;;;;5112012;28;20043;-70
2023/03/10 08:16:02;;;;;;;17.13;9.55;;;1.70;99.90;;;;;;5088589;28;20404;-70
2023/03/10 08:18:29;;;;;;;20.27;11.43;;;1.80;99.90;;;;;;5099385;28;20036;-70
2023/03/10 08:20:55;;;;;;;17.48;9.18;;;1.80;99.90;;;;;;5080952;28;20066;-70
2023/03/10 08:23:22;;;;;;;20.02;9.90;;;1.70;99.90;;;;;;5107038;28;20388;-70
2023/03/10 08:25:47;;;;;;;17.85;9.95;;;1.80;99.90;;;;;;5084826;28;20498;-70
2023/03/10 08:28:13;;;;;;;18.45;10.85;;;1.80;99.90;;;;;;5094647;28;20047;-70
2023/03/10 08:30:39;;;;;;;18.83;9.98;;;1.80;99.90;;;;;;5095020;28;20043;-70
2023/03/10 08:33:07;;;;;;;19.70;11.05;;;1.80;99.90;;;;;;5097983;28;20036;-70
2023/03/10 08:35:34;;;;;;;18.20;10.52;;;1.90;99.90;;;;;;5098791;28;20035;-70
2023/03/10 08:38:00;;;;;;;19.35;11.32;;;1.80;99.90;;;;;;5077088;28;20077;-70
2023/03/10 08:40:26;;;;;;;17.90;10.20;;;1.80;99.90;;;;;;5112023;27;20065;-70
2023/03/10 08:42:52;;;;;;;15.35;8.40;;;1.90;99.90;;;;;;5093995;28;20058;-70
2023/03/10 08:45:18;;;;;;;20.38;10.85;;;1.90;99.90;;;;;;5112761;27;20035;-71
2023/03/10 08:47:43;;;;;;;19.02;10.77;;;1.90;99.90;;;;;;5111796;28;20040;-70
2023/03/10 08:50:10;;;;;;;17.83;9.95;;;1.80;99.90;;;;;;5110391;28;20407;-70
2023/03/10 08:52:36;;;;;;;19.23;10.50;;;1.80;99.90;;;;;;5112136;28;20141;-70
2023/03/10 08:55:04;;;;;;;17.63;9.75;;;1.90;99.90;;;;;;5089789;28;20115;-70
2023/03/10 08:57:29;;;;;;;20.00;11.05;;;1.90;99.90;;;;;;5117421;27;20051;-70
2023/03/10 08:59:55;;;;;;;19.90;10.75;;;1.90;99.90;;;;;;5106866;28;20040;-70
2023/03/10 09:02:21;;;;;;;19.75;10.95;;;1.90;99.90;;;;;;5146173;27;20079;-70
2023/03/10 09:04:47;;;;;;;19.92;11.73;;;1.90;99.90;;;;;;5110874;28;20066;-70
2023/03/10 09:07:13;;;;;;;18.92;10.65;;;1.90;99.90;;;;;;5113287;28;20032;-70
2023/03/10 09:09:38;;;;;;;21.35;12.82;;;1.90;99.90;;;;;;5128376;27;20039;-70
2023/03/10 09:12:05;;;;;;;21.67;12.13;;;1.80;99.90;;;;;;5094143;28;20126;-70
2023/03/10 09:14:31;;;;;;;21.98;12.90;;;1.80;99.90;;;;;;5108208;28;20044;-70
2023/03/10 09:16:56;;;;;;;22.45;13.55;;;1.90;99.90;;;;;;5105882;28;20042;-70
2023/03/10 09:19:22;;;;;;;23.10;12.63;;;1.80;99.90;;;;;;5133056;27;20036;-69
2023/03/10 09:21:48;;;;;;;23.63;13.13;;;1.80;99.90;;;;;;5093336;28;20438;-69
2023/03/10 09:24:14;;;;;;;26.35;14.57;;;1.80;99.90;;;;;;5091259;28;20039;-69
2023/03/10 09:26:39;;;;;;;23.83;14.00;;;1.80;99.90;;;;;;5130304;27;20040;-69
2023/03/10 09:29:05;;;;;;;22.35;14.02;;;1.80;99.90;;;;;;5110620;28;20404;-69
2023/03/10 09:31:34;;;;;;;23.40;13.27;;;1.90;99.90;;;;;;5106373;28;20039;-69
2023/03/10 09:34:00;;;;;;;24.30;13.65;;;1.90;99.90;;;;;;5103359;28;20119;-69
2023/03/10 09:36:25;;;;;;;23.75;14.75;;;1.90;99.90;;;;;;5098393;27;20031;-69
2023/03/10 09:38:51;;;;;;;22.65;13.10;;;1.90;99.90;;;;;;5091781;28;20043;-69
2023/03/10 09:41:38;;;;;;;23.38;13.52;;;2.00;99.90;;;;;;5109863;27;20040;-69
2023/03/10 09:44:24;;;;;;;22.80;13.00;;;2.00;99.90;;;;;;5081279;28;20578;-69
2023/03/10 09:47:18;;;;;;;24.55;13.95;;;2.00;99.90;;;;;;5104483;28;20036;-69
2023/03/10 09:50:21;;;;;;;23.98;13.85;;;1.90;99.90;;;;;;5077924;28;20047;-69
2023/03/10 09:52:54;;;;;;;22.33;13.27;;;1.90;99.90;;;;;;5146183;27;20572;-69
2023/03/10 09:55:24;;;;;;;25.38;14.52;;;2.00;99.90;;;;;;5125007;27;20035;-69
2023/03/10 09:57:52;;;;;;;24.15;14.85;;;2.00;99.90;;;;;;5113034;28;20503;-68
2023/03/10 10:00:24;;;;;;;25.90;15.65;;;2.00;99.90;;;;;;5101173;28;20369;-68
2023/03/10 10:03:04;;;;;;;24.25;13.80;;;1.80;99.90;;;;;;5110149;28;20035;-68
2023/03/10 10:05:32;;;;;;;22.63;13.38;;;1.90;99.90;;;;;;5107948;28;20055;-68
2023/03/10 10:08:03;;;;;;;21.70;13.52;;;2.00;99.90;;;;;;5098042;28;20036;-68
2023/03/10 10:10:35;;;;;;;22.77;13.35;;;2.00;99.90;;;;;;5100896;28;20054;-68
2023/03/10 10:13:06;;;;;;;;;;;2.10;99.90;;;;;;5108858;28;20044;-68
2023/03/10 10:15:34;;;;;;;22.35;13.30;;;2.00;99.90;;;;;;5079368;28;19923;-68
2023/03/10 10:18:25;;;;;;;23.88;14.48;;;2.00;99.90;;;;;;5099518;28;20044;-69
2023/03/10 10:20:59;;;;;;;21.63;11.77;;;1.90;99.90;;;;;;5111547;28;20387;-68
2023/03/10 10:23:39;;;;;;;14.57;7.90;;;2.00;99.90;;;;;;5089444;28;20499;-68
2023/03/10 10:26:11;;;;;;;21.80;13.27;;;2.10;99.90;;;;;;5143044;27;20040;-68
2023/03/10 10:28:57;;;;;;;23.30;13.38;;;2.10;99.90;;;;;;5093497;28;20144;-68
2023/03/10 10:31:28;;;;;;;17.48;10.25;;;2.00;99.90;;;;;;5099397;28;20479;-68
2023/03/10 10:33:58;;;;;;;22.85;12.98;;;2.10;99.90;;;;;;5106308;27;20534;-69
2023/03/10 10:36:30;;;;;;;22.15;13.32;;;2.00;99.90;;;;;;5105970;28;20042;-68
2023/03/10 10:38:58;;;;;;;23.70;13.75;;;1.90;99.90;;;;;;5111298;28;20445;-68
2023/03/10 10:41:33;;;;;;;23.52;13.27;;;1.90;99.90;;;;;;5100725;28;20044;-68
2023/03/10 10:44:08;;;;;;;22.98;14.02;;;2.00;99.90;;;;;;5126286;27;20119;-68
2023/03/10 10:46:34;;;;;;;22.85;13.35;;;2.10;99.90;;;;;;5127345;27;20065;-68
2023/03/10 10:49:00;;;;;;;22.70;12.90;;;2.10;99.90;;;;;;5106473;28;20040;-68
2023/03/10 10:51:34;;;;;;;22.20;13.38;;;2.10;99.90;;;;;;5146115;27;20074;-68
2023/03/10 10:54:30;;;;;;;24.35;13.98;;;2.10;99.90;;;;;;5103393;28;20043;-68
2023/03/10 10:56:58;;;;;;;21.45;13.18;;;2.00;99.90;;;;;;5120843;28;20035;-69
2023/03/10 10:59:28;;;;;;;23.13;13.05;;;2.00;99.90;;;;;;5092847;28;20040;-69
2023/03/10 11:01:57;;;;;;;20.40;11.43;;;2.00;99.90;;;;;;5079371;28;20072;-69
2023/03/10 11:04:24;;;;;;;22.33;13.02;;;2.00;99.90;;;;;;5094476;28;20042;-69
2023/03/10 11:06:51;;;;;;;21.20;12.48;;;2.00;99.90;;;;;;5112458;28;20092;-68
2023/03/10 11:09:19;;;;;;;21.02;12.82;;;2.00;99.90;;;;;;5112830;28;20540;-68
2023/03/10 11:12:03;;;;;;;22.33;13.73;;;2.00;99.90;;;;;;5090749;28;20048;-69
2023/03/10 11:15:06;;;;;;;23.15;12.95;;;2.00;99.90;;;;;;5128157;27;20403;-68
2023/03/10 11:17:42;;;;;;;21.40;13.45;;;2.00;99.90;;;;;;5092650;28;20092;-68
2023/03/10 11:20:17;;;;;;;21.17;12.00;;;2.00;99.90;;;;;;5108551;27;20040;-69
2023/03/10 11:22:47;;;;;;;19.77;11.18;;;2.10;99.90;;;;;;5117304;27;20036;-68
2023/03/10 11:25:52;;;;;;;22.40;12.68;;;2.10;99.90;;;;;;5118222;27;20024;-68
2023/03/10 11:28:35;;;;;;;21.13;11.90;;;2.00;99.90;;;;;;5137273;27;20407;-69
2023/03/10 11:31:19;;;;;;;17.67;8.52;;;2.00;99.90;;;;;;5108641;28;20510;-69
2023/03/10 11:34:01;;;;;;;21.42;13.43;;;2.00;99.90;;;;;;5105143;28;20059;-69
2023/03/10 11:36:39;;;;;;;21.33;12.05;;;1.90;99.90;;;;;;5108822;28;20551;-68
2023/03/10 11:39:20;;;;;;;22.33;11.85;;;2.00;99.90;;;;;;5142266;27;20055;-68
2023/03/10 11:41:52;;;;;;;23.00;13.38;;;2.00;99.90;;;;;;5085093;28;20032;-68
2023/03/10 11:44:37;;;;;;;22.70;11.35;;;1.90;99.90;;;;;;5098103;28;20092;-69
2023/03/10 11:47:03;;;;;;;23.38;13.93;;;1.90;99.90;;;;;;5096826;28;20031;-68
2023/03/10 11:49:35;;;;;;;23.23;13.35;;;2.00;99.90;;;;;;5136571;27;20071;-69
2023/03/10 11:52:09;;;;;;;23.38;14.07;;;1.90;99.90;;;;;;5098673;28;20108;-68
2023/03/10 11:54:42;;;;;;;22.33;12.80;;;1.90;99.90;;;;;;5081351;28;20085;-69
2023/03/10 11:57:17;;;;;;;21.92;13.10;;;1.90;99.90;;;;;;5099855;28;20028;-69
2023/03/10 11:59:54;;;;;;;22.60;12.30;;;1.90;99.90;;;;;;5113570;28;20114;-69
2023/03/10 12:02:28;;;;;;;20.48;12.23;;;1.80;99.90;;;;;;5118711;27;20040;-68
2023/03/10 12:05:09;;;;;;;21.42;12.23;;;1.80;99.90;;;;;;5097381;27;20316;-68
2023/03/10 12:07:47;;;;;;;21.63;12.57;;;1.80;99.90;;;;;;5096256;27;20043;-69
2023/03/10 12:10:16;;;;;;;22.65;13.23;;;1.80;99.90;;;;;;5118250;27;20046;-69
2023/03/10 12:12:44;;;;;;;21.80;13.32;;;1.80;99.90;;;;;;5114661;27;20044;-69
2023/03/10 12:15:12;;;;;;;20.52;11.65;;;1.70;99.90;;;;;;5111366;28;20039;-69
2023/03/10 12:17:39;;;;;;;21.38;12.30;;;1.80;99.90;;;;;;5102946;28;20032;-69
2023/03/10 12:20:22;;;;;;;22.25;12.45;;;1.80;99.90;;;;;;5118633;27;20039;-69
2023/03/10 12:22:58;;;;;;;22.05;12.10;;;1.80;99.90;;;;;;5091179;28;20085;-69
2023/03/10 12:25:29;;;;;;;22.27;13.05;;;1.80;99.90;;;;;;5093560;28;20479;-69
2023/03/10 12:28:26;;;;;;;21.40;12.52;;;1.80;99.90;;;;;;5148887;27;20032;-69
2023/03/10 12:30:57;;;;;;;20.40;11.20;;;1.70;99.90;;;;;;5135704;27;20514;-69
2023/03/10 12:33:29;;;;;;;19.50;11.32;;;1.90;99.90;;;;;;5109038;28;20036;-69
2023/03/10 12:36:11;;;;;;;21.67;12.63;;;1.80;99.90;;;;;;5148802;27;20039;-69
2023/03/10 12:38:58;;;;;;;20.15;12.40;;;1.80;99.90;;;;;;5094335;28;20379;-69
2023/03/10 12:41:27;;;;;;;19.88;11.30;;;1.80;99.90;;;;;;5093666;28;20127;-69
2023/03/10 12:44:23;;;;;;;21.35;12.30;;;1.80;99.90;;;;;;5127813;27;20043;-69
2023/03/10 12:47:15;;;;;;;19.15;11.35;;;1.80;99.90;;;;;;5094232;28;20493;-69
2023/03/10 12:49:54;;;;;;;19.95;10.57;;;1.80;99.90;;;;;;5107497;27;20147;-69